createdAt,value
2022-10-05T00:00:43.572Z,15.22
2022-10-05T00:03:11.801Z,15.25
2022-10-05T00:05:38.741Z,15.23
2022-10-05T00:08:15.177Z,15.22
2022-10-05T00:10:42.938Z,15.22
2022-10-05T00:13:19.328Z,15.21
2022-10-05T00:15:46.367Z,15.22
2022-10-05T00:18:18.817Z,15.18
2022-10-05T00:20:47.192Z,15.19
2022-10-05T00:23:24.829Z,15.18
2022-10-05T00:25:51.475Z,15.17
2022-10-05T00:28:27.008Z,15.17
2022-10-05T00:30:57.966Z,15.19
2022-10-05T00:33:25.174Z,15.20
2022-10-05T00:35:51.608Z,15.08
2022-10-05T00:38:18.046Z,15.19
2022-10-05T00:40:59.962Z,15.18
2022-10-05T00:43:51.254Z,15.18
2022-10-05T00:46:21.553Z,15.15
2022-10-05T00:49:02.156Z,15.17
2022-10-05T00:51:31.325Z,15.16
2022-10-05T00:54:18.518Z,15.16
2022-10-05T00:57:22.698Z,15.15
2022-10-05T01:00:08.952Z,15.17
2022-10-05T01:02:50.436Z,15.16
2022-10-05T01:05:29.007Z,15.16
2022-10-05T01:08:07.876Z,15.16
2022-10-05T01:10:45.219Z,15.11
2022-10-05T01:13:22.298Z,14.86
2022-10-05T01:15:58.716Z,15.11
2022-10-05T01:18:33.093Z,15.13
2022-10-05T01:21:06.147Z,15.12
2022-10-05T01:23:58.984Z,15.09
2022-10-05T01:27:01.809Z,15.15
2022-10-05T01:29:37.477Z,15.13
2022-10-05T01:32:15.671Z,15.11
2022-10-05T01:34:56.273Z,15.06
2022-10-05T01:37:29.659Z,15.09
2022-10-05T01:40:08.320Z,15.02
2022-10-05T01:42:49.791Z,15.07
2022-10-05T01:45:31.447Z,14.96
2022-10-05T01:48:09.843Z,15.06
2022-10-05T01:50:48.396Z,15.08
2022-10-05T01:53:35.053Z,15.07
2022-10-05T01:56:14.894Z,14.99
2022-10-05T01:59:05.534Z,15.11
2022-10-05T02:01:58.303Z,15.11
2022-10-05T02:05:01.081Z,15.03
2022-10-05T02:07:27.650Z,15.08
2022-10-05T02:10:14.481Z,15.03
2022-10-05T02:12:42.908Z,15.03
2022-10-05T02:15:17.109Z,15.03
2022-10-05T02:17:50.438Z,14.94
2022-10-05T02:20:27.711Z,14.95
2022-10-05T02:22:58.275Z,14.99
2022-10-05T02:25:33.154Z,15.00
2022-10-05T02:28:07.936Z,15.02
2022-10-05T02:30:40.708Z,14.99
2022-10-05T02:33:13.802Z,14.90
2022-10-05T02:35:40.303Z,15.01
2022-10-05T02:38:19.458Z,14.96
2022-10-05T02:41:14.361Z,14.97
2022-10-05T02:43:49.934Z,14.98
2022-10-05T02:46:21.734Z,14.98
2022-10-05T02:49:09.786Z,14.96
2022-10-05T02:51:50.217Z,14.91
2022-10-05T02:54:48.756Z,14.81
2022-10-05T02:57:24.731Z,14.97
2022-10-05T02:59:56.676Z,14.93
2022-10-05T03:02:32.209Z,14.94
2022-10-05T03:05:19.848Z,14.97
2022-10-05T03:08:05.332Z,14.93
2022-10-05T03:11:16.271Z,14.92
2022-10-05T03:14:05.209Z,14.89
2022-10-05T03:16:50.306Z,14.89
2022-10-05T03:19:36.977Z,14.74
2022-10-05T03:22:31.432Z,14.88
2022-10-05T03:25:16.575Z,14.85
2022-10-05T03:28:30.976Z,14.88
2022-10-05T03:31:05.009Z,14.85
2022-10-05T03:33:53.162Z,14.79
2022-10-05T03:36:33.058Z,14.82
2022-10-05T03:39:21.531Z,14.84
2022-10-05T03:42:03.517Z,14.79
2022-10-05T03:44:42.078Z,14.82
2022-10-05T03:47:14.402Z,14.83
2022-10-05T03:50:03.199Z,14.79
2022-10-05T03:52:39.631Z,14.80
2022-10-05T03:55:34.223Z,14.79
2022-10-05T03:58:06.599Z,14.82
2022-10-05T04:00:35.310Z,14.76
2022-10-05T04:03:22.013Z,14.79
2022-10-05T04:06:12.345Z,14.69
2022-10-05T04:08:54.482Z,14.74
2022-10-05T04:11:34.443Z,14.74
2022-10-05T04:14:06.665Z,14.77
2022-10-05T04:16:43.906Z,14.73
2022-10-05T04:19:53.190Z,14.73
2022-10-05T04:22:28.086Z,14.72
2022-10-05T04:25:16.778Z,14.65
2022-10-05T04:27:52.041Z,14.74
2022-10-05T04:30:19.930Z,14.73
2022-10-05T04:32:55.317Z,14.71
2022-10-05T04:35:41.079Z,14.69
2022-10-05T04:38:13.302Z,14.74
2022-10-05T04:41:01.417Z,14.75
2022-10-05T04:43:43.069Z,14.73
2022-10-05T04:46:21.642Z,14.70
2022-10-05T04:49:15.844Z,14.70
2022-10-05T04:52:09.661Z,14.68
2022-10-05T04:54:58.804Z,14.71
2022-10-05T04:57:40.925Z,14.65
2022-10-05T05:00:20.706Z,14.69
2022-10-05T05:03:11.858Z,14.68
2022-10-05T05:06:16.519Z,14.67
2022-10-05T05:09:12.107Z,14.68
2022-10-05T05:12:03.837Z,14.66
2022-10-05T05:14:55.398Z,14.66
2022-10-05T05:17:59.343Z,14.65
2022-10-05T05:21:07.485Z,14.62
2022-10-05T05:23:48.552Z,14.62
2022-10-05T05:26:27.155Z,14.54
2022-10-05T05:29:16.991Z,14.57
2022-10-05T05:31:59.898Z,14.56
2022-10-05T05:34:55.908Z,14.63
2022-10-05T05:37:34.520Z,14.65
2022-10-05T05:40:00.843Z,14.66
2022-10-05T05:42:34.182Z,14.62
2022-10-05T05:45:10.584Z,14.58
2022-10-05T05:47:41.023Z,14.59
2022-10-05T05:50:30.329Z,14.63
2022-10-05T05:53:12.455Z,14.54
2022-10-05T05:55:47.187Z,14.62
2022-10-05T05:58:13.505Z,14.62
2022-10-05T06:01:04.352Z,14.63
2022-10-05T06:03:44.754Z,14.57
2022-10-05T06:06:15.676Z,14.49
2022-10-05T06:08:45.744Z,14.61
2022-10-05T06:11:32.782Z,14.58
2022-10-05T06:14:05.164Z,14.58
2022-10-05T06:16:47.301Z,14.53
2022-10-05T06:19:20.362Z,14.59
2022-10-05T06:21:55.967Z,14.60
2022-10-05T06:24:27.024Z,14.61
2022-10-05T06:27:18.906Z,14.65
2022-10-05T06:29:56.963Z,14.65
2022-10-05T06:32:31.448Z,14.63
2022-10-05T06:35:08.764Z,14.67
2022-10-05T06:37:53.780Z,14.67
2022-10-05T06:40:32.399Z,14.66
2022-10-05T06:43:26.088Z,14.68
2022-10-05T06:46:11.862Z,14.69
2022-10-05T06:48:55.328Z,14.68
2022-10-05T06:51:51.681Z,14.68
2022-10-05T06:54:33.377Z,14.68
2022-10-05T06:57:09.975Z,14.47
2022-10-05T06:59:47.827Z,14.58
2022-10-05T07:02:20.396Z,14.69
2022-10-05T07:04:52.716Z,14.69
2022-10-05T07:07:40.449Z,14.69
2022-10-05T07:10:51.569Z,14.68
2022-10-05T07:13:23.695Z,14.70
2022-10-05T07:16:01.501Z,14.66
2022-10-05T07:18:44.678Z,14.65
2022-10-05T07:21:39.476Z,14.69
2022-10-05T07:24:29.146Z,14.70
2022-10-05T07:27:16.879Z,14.74
2022-10-05T07:29:46.163Z,14.75
2022-10-05T07:32:22.360Z,14.76
2022-10-05T07:35:04.071Z,14.75
2022-10-05T07:37:57.214Z,14.77
2022-10-05T07:40:39.337Z,14.74
2022-10-05T07:43:11.931Z,14.78
2022-10-05T07:46:05.508Z,14.78
2022-10-05T07:48:53.755Z,14.78
2022-10-05T07:51:26.099Z,14.80
2022-10-05T07:54:08.655Z,14.76
2022-10-05T07:56:41.936Z,14.70
2022-10-05T07:59:20.020Z,14.84
2022-10-05T08:01:52.032Z,14.74
2022-10-05T08:04:27.518Z,14.86
2022-10-05T08:07:04.782Z,14.83
2022-10-05T08:09:49.460Z,14.77
2022-10-05T08:12:27.798Z,14.87
2022-10-05T08:15:03.268Z,14.85
2022-10-05T08:17:56.031Z,14.88
2022-10-05T08:20:37.392Z,14.88
2022-10-05T08:23:33.182Z,14.81
2022-10-05T08:26:13.327Z,14.90
2022-10-05T08:28:50.927Z,14.91
2022-10-05T08:31:23.146Z,14.96
2022-10-05T08:34:10.960Z,14.98
2022-10-05T08:36:40.293Z,14.99
2022-10-05T08:39:16.069Z,14.94
2022-10-05T08:42:06.726Z,14.98
2022-10-05T08:44:57.970Z,15.04
2022-10-05T08:48:10.559Z,15.05
2022-10-05T08:51:05.739Z,14.94
2022-10-05T08:53:52.811Z,15.09
2022-10-05T08:56:44.041Z,15.11
2022-10-05T08:59:47.732Z,15.13
2022-10-05T09:02:18.717Z,15.11
2022-10-05T09:04:51.247Z,15.17
2022-10-05T09:07:38.120Z,15.18
2022-10-05T09:10:26.147Z,15.19
2022-10-05T09:13:10.603Z,15.10
2022-10-05T09:15:46.063Z,15.24
2022-10-05T09:18:28.522Z,15.26
2022-10-05T09:21:32.618Z,15.25
2022-10-05T09:24:15.591Z,15.25
2022-10-05T09:26:46.328Z,15.25
2022-10-05T09:29:35.735Z,15.18
2022-10-05T09:32:39.866Z,15.28
2022-10-05T09:35:24.421Z,15.29
2022-10-05T09:37:53.729Z,15.32
2022-10-05T09:40:47.558Z,15.31
2022-10-05T09:43:55.761Z,15.31
2022-10-05T09:46:55.170Z,15.29
2022-10-05T09:50:09.690Z,15.13
2022-10-05T09:52:52.929Z,15.32
2022-10-05T09:55:46.975Z,15.33
2022-10-05T09:58:16.474Z,15.34
2022-10-05T10:01:09.039Z,15.31
2022-10-05T10:03:54.059Z,15.34
2022-10-05T10:06:39.302Z,15.33
2022-10-05T10:09:29.104Z,15.35
2022-10-05T10:12:29.643Z,15.39
2022-10-05T10:15:09.334Z,15.41
2022-10-05T10:17:48.362Z,15.34
2022-10-05T10:20:26.910Z,15.43
2022-10-05T10:23:22.900Z,15.41
2022-10-05T10:26:13.539Z,15.40
2022-10-05T10:28:53.175Z,15.41
2022-10-05T10:31:34.707Z,15.41
2022-10-05T10:34:38.735Z,15.42
2022-10-05T10:37:26.863Z,15.43
2022-10-05T10:40:02.205Z,15.40
2022-10-05T10:42:44.713Z,15.45
2022-10-05T10:45:19.638Z,15.46
2022-10-05T10:47:51.462Z,15.43
2022-10-05T10:50:36.567Z,15.47
2022-10-05T10:53:21.546Z,15.48
2022-10-05T10:56:00.107Z,15.50
2022-10-05T10:59:03.901Z,15.50
2022-10-05T11:01:30.291Z,15.51
2022-10-05T11:04:34.002Z,15.50
2022-10-05T11:07:35.241Z,15.50
2022-10-05T11:10:23.334Z,15.50
2022-10-05T11:13:12.410Z,15.51
2022-10-05T11:16:00.867Z,15.52
2022-10-05T11:18:49.596Z,15.52
2022-10-05T11:21:18.992Z,15.53
2022-10-05T11:23:54.411Z,15.54
2022-10-05T11:26:32.505Z,15.53
2022-10-05T11:29:20.930Z,15.57
2022-10-05T11:32:32.692Z,15.61
2022-10-05T11:35:07.832Z,15.65
2022-10-05T11:37:40.146Z,15.66
2022-10-05T11:40:44.393Z,15.70
2022-10-05T11:43:52.970Z,15.76
2022-10-05T11:46:29.879Z,15.70
2022-10-05T11:49:20.447Z,15.80
2022-10-05T11:52:16.907Z,15.86
2022-10-05T11:55:12.169Z,15.91
2022-10-05T11:57:56.372Z,15.95
2022-10-05T12:00:36.099Z,15.95
2022-10-05T12:03:30.035Z,16.01
2022-10-05T12:06:33.986Z,16.03
2022-10-05T12:09:18.627Z,15.99
2022-10-05T12:12:12.909Z,16.02
2022-10-05T12:14:57.353Z,16.05
2022-10-05T12:17:37.658Z,16.04
2022-10-05T12:20:22.374Z,16.05
2022-10-05T12:23:30.335Z,16.07
2022-10-05T12:26:01.391Z,16.09
2022-10-05T12:28:37.210Z,16.09
2022-10-05T12:31:25.772Z,16.09
2022-10-05T12:34:02.335Z,16.07
2022-10-05T12:37:02.399Z,16.13
2022-10-05T12:39:49.967Z,16.22
2022-10-05T12:42:36.950Z,16.20
2022-10-05T12:45:20.885Z,16.33
2022-10-05T12:48:20.636Z,16.35
2022-10-05T12:50:54.982Z,16.34
2022-10-05T12:53:30.433Z,16.33
2022-10-05T12:56:08.364Z,16.24
2022-10-05T12:58:56.563Z,16.30
2022-10-05T13:01:25.897Z,16.29
2022-10-05T13:04:12.885Z,16.34
2022-10-05T13:06:51.743Z,16.37
2022-10-05T13:09:32.782Z,16.30
2022-10-05T13:12:07.522Z,16.36
2022-10-05T13:14:59.422Z,16.44
2022-10-05T13:17:36.900Z,16.43
2022-10-05T13:20:15.349Z,16.43
2022-10-05T13:22:52.553Z,16.30
2022-10-05T13:25:27.161Z,16.44
2022-10-05T13:28:20.344Z,16.47
2022-10-05T13:31:22.415Z,16.52
2022-10-05T13:34:02.005Z,16.53
2022-10-05T13:36:38.404Z,16.53
2022-10-05T13:39:16.354Z,16.55
2022-10-05T13:41:54.492Z,16.54
2022-10-05T13:44:33.822Z,16.48
2022-10-05T13:47:30.253Z,16.48
2022-10-05T13:50:28.513Z,16.47
2022-10-05T13:53:24.346Z,16.51
2022-10-05T13:56:07.300Z,16.50
2022-10-05T13:58:47.928Z,16.36
2022-10-05T14:01:34.646Z,16.50
2022-10-05T14:04:05.114Z,16.64
2022-10-05T14:06:38.783Z,16.61
2022-10-05T14:09:12.517Z,16.58
2022-10-05T14:11:49.671Z,16.61
2022-10-05T14:14:26.517Z,16.60
2022-10-05T14:17:17.827Z,16.63
2022-10-05T14:19:47.870Z,16.65
2022-10-05T14:22:24.773Z,16.68
2022-10-05T14:24:57.006Z,16.71
2022-10-05T14:27:29.706Z,16.72
2022-10-05T14:29:58.082Z,16.70
2022-10-05T14:32:27.080Z,16.68
2022-10-05T14:35:05.201Z,16.72
2022-10-05T14:37:43.269Z,16.53
2022-10-05T14:40:37.042Z,16.72
2022-10-05T14:43:15.662Z,16.73
2022-10-05T14:46:05.532Z,16.65
2022-10-05T14:48:41.847Z,16.68
2022-10-05T14:51:24.085Z,16.69
2022-10-05T14:54:00.184Z,16.67
2022-10-05T14:56:36.532Z,16.69
2022-10-05T14:59:22.208Z,16.57
2022-10-05T15:02:10.910Z,16.63
2022-10-05T15:04:44.701Z,16.66
2022-10-05T15:07:17.146Z,16.67
2022-10-05T15:09:57.809Z,16.64
2022-10-05T15:12:43.959Z,16.62
2022-10-05T15:15:37.028Z,16.63
2022-10-05T15:18:15.035Z,16.65
2022-10-05T15:20:56.173Z,16.66
2022-10-05T15:23:43.691Z,16.65
2022-10-05T15:26:28.248Z,16.65
2022-10-05T15:29:24.183Z,16.59
2022-10-05T15:32:03.204Z,16.57
2022-10-05T15:34:43.875Z,16.59
2022-10-05T15:37:26.961Z,16.55
2022-10-05T15:39:59.751Z,16.52
2022-10-05T15:42:36.417Z,16.49
2022-10-05T15:45:06.187Z,16.51
2022-10-05T15:47:46.975Z,16.48
2022-10-05T15:50:26.403Z,16.40
2022-10-05T15:53:05.315Z,16.44
2022-10-05T15:55:50.526Z,16.54
2022-10-05T15:58:31.296Z,16.49
2022-10-05T16:01:05.207Z,16.48
2022-10-05T16:03:46.639Z,16.48
2022-10-05T16:07:04.250Z,16.50
2022-10-05T16:09:49.760Z,16.54
2022-10-05T16:12:29.368Z,16.57
2022-10-05T16:15:33.855Z,16.55
2022-10-05T16:18:18.446Z,16.41
2022-10-05T16:21:01.697Z,16.54
2022-10-05T16:23:33.991Z,16.53
2022-10-05T16:26:03.083Z,16.49
2022-10-05T16:28:50.415Z,16.46
2022-10-05T16:31:25.876Z,16.52
2022-10-05T16:34:02.720Z,16.53
2022-10-05T16:36:40.055Z,16.41
2022-10-05T16:39:37.580Z,16.49
2022-10-05T16:42:21.731Z,16.53
2022-10-05T16:44:54.301Z,16.50
2022-10-05T16:47:45.996Z,16.47
2022-10-05T16:50:30.338Z,16.48
2022-10-05T16:53:04.848Z,16.49
2022-10-05T16:55:46.022Z,16.53
2022-10-05T16:58:25.476Z,16.50
2022-10-05T17:01:23.766Z,16.41
2022-10-05T17:04:17.461Z,16.52
2022-10-05T17:07:22.260Z,16.52
2022-10-05T17:10:07.035Z,16.52
2022-10-05T17:13:00.288Z,16.48
2022-10-05T17:15:55.879Z,16.48
2022-10-05T17:18:27.166Z,16.46
2022-10-05T17:21:13.182Z,16.48
2022-10-05T17:23:54.653Z,16.50
2022-10-05T17:26:33.275Z,16.48
2022-10-05T17:29:19.179Z,16.47
2022-10-05T17:32:10.834Z,16.41
2022-10-05T17:35:02.923Z,16.45
2022-10-05T17:37:37.564Z,16.49
2022-10-05T17:40:28.706Z,16.51
2022-10-05T17:43:26.163Z,16.49
2022-10-05T17:46:00.423Z,16.43
2022-10-05T17:48:37.783Z,16.43
2022-10-05T17:51:47.114Z,16.43
2022-10-05T17:54:49.455Z,16.42
2022-10-05T17:57:25.420Z,16.39
2022-10-05T17:59:57.443Z,16.35
2022-10-05T18:02:38.535Z,16.32
2022-10-05T18:05:05.003Z,16.31
2022-10-05T18:07:36.149Z,16.34
2022-10-05T18:10:17.478Z,16.35
2022-10-05T18:12:48.001Z,16.31
2022-10-05T18:15:16.574Z,16.27
2022-10-05T18:17:51.318Z,16.18
2022-10-05T18:20:31.979Z,16.03
2022-10-05T18:23:07.815Z,16.15
2022-10-05T18:25:43.382Z,16.22
2022-10-05T18:28:40.979Z,16.25
2022-10-05T18:31:39.057Z,16.16
2022-10-05T18:34:18.047Z,15.92
2022-10-05T18:37:03.201Z,15.67
2022-10-05T18:39:38.832Z,15.38
2022-10-05T18:42:38.630Z,15.13
2022-10-05T18:45:17.198Z,15.00
2022-10-05T18:48:00.036Z,14.83
2022-10-05T18:50:41.998Z,14.84
2022-10-05T18:53:44.782Z,14.74
2022-10-05T18:56:28.784Z,14.63
2022-10-05T18:58:57.016Z,14.66
2022-10-05T19:01:43.969Z,14.68
2022-10-05T19:04:28.509Z,14.67
2022-10-05T19:07:06.379Z,14.65
2022-10-05T19:10:08.664Z,14.77
2022-10-05T19:12:46.671Z,14.79
2022-10-05T19:15:34.229Z,14.80
2022-10-05T19:18:23.351Z,14.71
2022-10-05T19:21:01.284Z,14.74
2022-10-05T19:23:33.774Z,14.61
2022-10-05T19:26:18.362Z,14.71
2022-10-05T19:29:27.149Z,14.68
2022-10-05T19:32:03.767Z,14.55
2022-10-05T19:34:43.706Z,14.65
2022-10-05T19:37:15.592Z,14.53
2022-10-05T19:39:54.865Z,14.61
2022-10-05T19:43:02.987Z,14.63
2022-10-05T19:45:33.490Z,14.73
2022-10-05T19:48:30.443Z,14.54
2022-10-05T19:51:01.384Z,14.72
2022-10-05T19:53:37.001Z,14.53
2022-10-05T19:56:28.582Z,14.63
2022-10-05T19:58:57.381Z,14.68
2022-10-05T20:01:35.439Z,14.71
2022-10-05T20:04:02.692Z,14.78
2022-10-05T20:06:31.023Z,14.73
2022-10-05T20:09:01.529Z,14.74
2022-10-05T20:11:29.093Z,14.75
2022-10-05T20:13:55.418Z,14.69
2022-10-05T20:16:51.062Z,14.58
2022-10-05T20:19:56.138Z,14.49
2022-10-05T20:22:25.591Z,14.43
2022-10-05T20:24:54.617Z,14.39
2022-10-05T20:27:39.854Z,14.46
2022-10-05T20:30:07.782Z,14.47
2022-10-05T20:32:34.250Z,14.41
2022-10-05T20:35:00.729Z,14.36
2022-10-05T20:37:27.392Z,14.30
2022-10-05T20:39:53.865Z,14.17
2022-10-05T20:42:30.384Z,14.15
2022-10-05T20:44:57.835Z,14.07
2022-10-05T20:47:25.717Z,14.16
2022-10-05T20:49:54.562Z,14.17
2022-10-05T20:52:21.599Z,14.21
2022-10-05T20:54:52.977Z,14.22
2022-10-05T20:57:21.188Z,14.20
2022-10-05T20:59:47.676Z,14.12
2022-10-05T21:02:14.045Z,14.15
2022-10-05T21:04:42.302Z,14.18
2022-10-05T21:07:09.532Z,14.23
2022-10-05T21:09:38.394Z,14.20
2022-10-05T21:12:05.091Z,14.24
2022-10-05T21:14:34.270Z,14.29
2022-10-05T21:17:01.926Z,14.37
2022-10-05T21:19:29.506Z,14.37
2022-10-05T21:21:59.300Z,14.39
2022-10-05T21:24:25.801Z,14.39
2022-10-05T21:26:52.189Z,14.39
2022-10-05T21:29:18.549Z,14.46
2022-10-05T21:31:45.017Z,14.50
2022-10-05T21:34:11.406Z,14.53
2022-10-05T21:36:37.869Z,14.50
2022-10-05T21:39:04.536Z,14.55
2022-10-05T21:41:30.969Z,14.50
2022-10-05T21:43:57.402Z,14.51
2022-10-05T21:46:26.602Z,14.49
2022-10-05T21:48:54.410Z,14.49
2022-10-05T21:51:24.075Z,14.48
2022-10-05T21:53:58.186Z,14.47
2022-10-05T21:56:29.488Z,14.39
2022-10-05T21:58:56.099Z,14.42
2022-10-05T22:01:23.169Z,14.32
2022-10-05T22:03:49.905Z,14.43
2022-10-05T22:06:16.332Z,14.41
2022-10-05T22:08:43.017Z,14.38
2022-10-05T22:11:15.793Z,14.34
2022-10-05T22:13:50.375Z,14.31
2022-10-05T22:16:19.840Z,14.28
2022-10-05T22:18:47.057Z,14.30
2022-10-05T22:21:14.546Z,14.33
2022-10-05T22:23:42.788Z,14.27
2022-10-05T22:26:12.546Z,14.29
2022-10-05T22:28:39.741Z,14.24
2022-10-05T22:31:07.828Z,14.19
2022-10-05T22:33:34.268Z,14.19
2022-10-05T22:36:01.246Z,14.22
2022-10-05T22:38:30.279Z,14.20
2022-10-05T22:40:57.233Z,14.22
2022-10-05T22:43:23.758Z,14.15
2022-10-05T22:45:50.731Z,14.19
2022-10-05T22:48:17.202Z,14.18
2022-10-05T22:50:44.792Z,14.16
2022-10-05T22:53:12.406Z,14.16
2022-10-05T22:55:38.807Z,14.10
2022-10-05T22:58:05.231Z,14.05
2022-10-05T23:00:56.383Z,14.06
2022-10-05T23:03:18.037Z,13.98
2022-10-05T23:05:44.437Z,14.02
2022-10-05T23:08:10.817Z,13.99
2022-10-05T23:10:37.202Z,13.94
2022-10-05T23:13:04.923Z,13.94
2022-10-05T23:15:31.265Z,13.99
2022-10-05T23:17:57.707Z,13.90
2022-10-05T23:20:24.715Z,13.88
2022-10-05T23:22:51.147Z,13.87
2022-10-05T23:25:17.946Z,13.90
2022-10-05T23:27:44.419Z,13.85
2022-10-05T23:30:12.745Z,13.89
2022-10-05T23:32:41.483Z,13.88
2022-10-05T23:35:10.035Z,13.85
2022-10-05T23:37:41.208Z,13.93
2022-10-05T23:40:10.455Z,13.91
2022-10-05T23:42:36.833Z,13.83
2022-10-05T23:45:03.831Z,13.83
2022-10-05T23:47:31.288Z,13.84
2022-10-05T23:49:57.764Z,13.84
2022-10-05T23:52:24.291Z,13.84
2022-10-05T23:54:50.667Z,13.78
2022-10-05T23:57:20.290Z,13.72
2022-10-05T23:59:50.111Z,13.71
